Time;durP1;ratioP1;P1;durP2;ratioP2;P2;SDS_P1;SDS_P2;PMS_P1;PMS_P2;Temp;Humidity;BMP_temperature;BMP_pressure;BME280_temperature;BME280_humidity;BME280_pressure;Samples;Min_cycle;Max_cycle;Signal;HPM_P1;HPM_P2
2023/07/31 00:00:22;;;;;;;1.90;1.63;;;;;;;16.51;63.89;98026.44;5026472;28;20456;-83
2023/07/31 00:02:48;;;;;;;6.50;2.40;;;;;;;16.53;63.99;98027.84;5026659;28;20456;-84
2023/07/31 00:05:16;;;;;;;2.70;2.03;;;;;;;16.34;64.69;98029.03;5026653;28;21018;-83
2023/07/31 00:07:43;;;;;;;2.53;1.97;;;;;;;16.30;65.26;98023.22;5027691;28;20526;-84
2023/07/31 00:10:10;;;;;;;3.87;1.93;;;;;;;16.37;64.71;98017.66;5028752;28;20566;-83
2023/07/31 00:12:39;;;;;;;3.40;2.20;;;;;;;16.20;65.07;98022.19;5025969;28;20490;-84
2023/07/31 00:15:07;;;;;;;2.13;1.90;;;;;;;16.21;65.43;98023.84;5027780;28;20475;-84
2023/07/31 00:17:33;;;;;;;2.47;1.80;;;;;;;16.34;64.74;98029.03;5025104;28;20575;-83
2023/07/31 00:20:00;;;;;;;2.10;1.90;;;;;;;16.28;65.16;98016.34;5025105;28;20506;-84
2023/07/31 00:22:27;;;;;;;4.03;2.13;;;;;;;16.27;65.27;98025.59;5026960;28;20452;-84
2023/07/31 00:24:53;;;;;;;5.00;2.10;;;;;;;16.13;65.54;98023.13;5027371;28;20459;-84
2023/07/31 00:27:20;;;;;;;3.10;2.40;;;;;;;16.01;65.97;98024.19;5028225;28;20539;-84
2023/07/31 00:29:48;;;;;;;3.07;2.40;;;;;;;16.05;66.29;98028.13;5026650;28;20492;-84
2023/07/31 00:32:15;;;;;;;2.50;2.30;;;;;;;15.92;66.85;98026.44;5023706;28;20551;-84
2023/07/31 00:34:42;;;;;;;4.30;2.10;;;;;;;15.97;66.83;98026.56;5026339;28;20535;-85
2023/07/31 00:37:09;;;;;;;2.27;1.73;;;;;;;16.01;66.56;98030.50;5027668;28;20460;-84
2023/07/31 00:39:36;;;;;;;2.70;2.07;;;;;;;15.88;67.28;98032.63;5029263;28;20964;-84
2023/07/31 00:42:03;;;;;;;3.03;1.90;;;;;;;15.93;66.83;98039.03;5027029;28;20523;-84
2023/07/31 00:44:30;;;;;;;3.00;1.93;;;;;;;16.04;66.16;98029.19;5026433;28;20832;-84
2023/07/31 00:46:59;;;;;;;5.87;2.10;;;;;;;16.18;65.72;98035.25;5023924;28;20464;-84
2023/07/31 00:49:26;;;;;;;3.70;1.90;;;;;;;16.14;65.58;98029.44;5027185;28;20879;-84
2023/07/31 00:51:53;;;;;;;4.10;2.17;;;;;;;16.18;65.26;98019.69;5027213;28;20472;-85
2023/07/31 00:54:19;;;;;;;3.07;2.17;;;;;;;16.01;65.97;98026.94;5024268;28;20538;-84
2023/07/31 00:56:48;;;;;;;3.60;1.73;;;;;;;16.06;66.00;98016.97;5027087;28;20448;-84
2023/07/31 00:59:15;;;;;;;3.50;2.00;;;;;;;15.92;66.05;98026.44;5028884;28;20460;-84
2023/07/31 01:01:42;;;;;;;3.67;2.27;;;;;;;16.03;65.69;98017.44;5027465;28;20559;-84
2023/07/31 01:04:10;;;;;;;3.27;2.07;;;;;;;15.86;66.34;98026.56;5022270;28;20948;-83
2023/07/31 01:06:41;;;;;;;3.87;2.27;;;;;;;16.01;65.68;98019.56;5027483;28;20552;-84
2023/07/31 01:09:13;;;;;;;2.50;1.90;;;;;;;16.09;65.55;98024.69;5031867;28;20479;-84
2023/07/31 01:11:47;;;;;;;3.00;2.10;;;;;;;15.90;66.10;98023.16;5030492;28;20455;-84
2023/07/31 01:14:14;;;;;;;2.57;1.93;;;;;;;16.02;65.96;98009.47;5028480;28;20943;-85
2023/07/31 01:16:41;;;;;;;4.13;2.10;;;;;;;15.91;66.17;98007.59;5030928;28;20494;-84
2023/07/31 01:19:10;;;;;;;3.43;2.03;;;;;;;15.72;66.80;98009.59;5030833;28;20467;-84
2023/07/31 01:21:52;;;;;;;2.13;1.97;;;;;;;15.49;67.69;98014.97;5027542;28;20479;-84
2023/07/31 01:24:24;;;;;;;3.33;1.90;;;;;;;15.47;68.01;98009.75;5027720;28;20495;-84
2023/07/31 01:26:57;;;;;;;3.70;2.10;;;;;;;15.38;68.52;98003.81;5031600;28;20463;-84
2023/07/31 01:29:31;;;;;;;1.90;1.67;;;;;;;15.17;69.60;98001.63;5031583;28;21843;-84
2023/07/31 01:32:01;;;;;;;2.27;2.07;;;;;;;15.29;69.22;98005.19;5028438;28;20463;-84
2023/07/31 01:34:29;;;;;;;3.53;2.23;;;;;;;15.33;69.35;97997.38;5031233;28;20546;-84
2023/07/31 01:36:57;;;;;;;2.60;2.00;;;;;;;15.25;69.82;97987.66;5028511;28;20526;-84
2023/07/31 01:39:23;;;;;;;2.13;1.93;;;;;;;15.26;69.53;97983.88;5030510;28;20949;-84
2023/07/31 01:41:50;;;;;;;2.60;2.13;;;;;;;15.31;69.48;97980.41;5029276;28;20488;-84
2023/07/31 01:44:18;;;;;;;5.17;3.13;;;;;;;15.36;69.46;97984.13;5026123;28;20459;-84
2023/07/31 01:46:45;;;;;;;3.57;1.93;;;;;;;15.41;69.29;97978.78;5027128;28;20452;-84
2023/07/31 01:49:12;;;;;;;3.00;2.67;;;;;;;15.47;69.01;97982.47;5032264;28;20451;-84
2023/07/31 01:51:39;;;;;;;2.20;2.00;;;;;;;15.56;68.67;97977.53;5026693;28;21225;-84
2023/07/31 01:54:06;;;;;;;2.10;1.87;;;;;;;15.38;69.51;97986.59;5030849;28;20452;-84
2023/07/31 01:56:32;;;;;;;2.40;2.20;;;;;;;15.25;70.03;97982.22;5030906;28;20550;-84
2023/07/31 01:58:59;;;;;;;2.93;2.40;;;;;;;15.36;69.62;97983.28;5032726;28;20502;-84
2023/07/31 02:01:27;;;;;;;2.60;2.37;;;;;;;15.21;70.29;97975.56;5030697;28;20464;-84
2023/07/31 02:03:54;;;;;;;3.13;2.20;;;;;;;15.24;70.30;97977.81;5033165;28;20488;-84
2023/07/31 02:06:22;;;;;;;3.43;2.07;;;;;;;15.19;70.35;97977.69;5035102;28;20478;-83
2023/07/31 02:08:49;;;;;;;4.33;2.20;;;;;;;15.07;71.02;97963.19;5035358;28;20465;-83
2023/07/31 02:11:15;;;;;;;3.43;2.10;;;;;;;15.04;71.29;97969.94;5054905;28;20491;-83
2023/07/31 02:13:42;;;;;;;2.60;1.90;;;;;;;15.23;70.86;97970.72;5056493;28;20460;-84
2023/07/31 02:16:09;;;;;;;6.40;2.23;;;;;;;15.04;71.23;97960.91;5055036;28;20486;-83
2023/07/31 02:18:37;;;;;;;3.33;2.07;;;;;;;14.94;71.90;97952.50;5044599;28;20559;-82
2023/07/31 02:21:05;;;;;;;3.80;2.30;;;;;;;15.01;71.71;97953.19;5032937;28;20463;-84
2023/07/31 02:23:32;;;;;;;2.63;2.20;;;;;;;14.94;71.66;97953.31;5033926;28;20529;-84
2023/07/31 02:26:00;;;;;;;2.47;2.07;;;;;;;14.91;71.92;97950.22;5031732;28;20543;-83
2023/07/31 02:28:27;;;;;;;3.67;2.17;;;;;;;14.90;71.83;97945.84;5030938;28;20555;-84
2023/07/31 02:30:54;;;;;;;2.43;2.17;;;;;;;14.83;72.32;97950.56;5029804;28;20575;-84
2023/07/31 02:33:21;;;;;;;2.60;2.10;;;;;;;14.84;72.36;97954.94;5030948;28;20573;-83
2023/07/31 02:35:49;;;;;;;7.03;2.23;;;;;;;14.79;72.37;97944.72;5031807;28;20456;-83
2023/07/31 02:38:16;;;;;;;3.30;2.33;;;;;;;14.79;72.54;97940.13;5029956;28;20511;-84
2023/07/31 02:40:43;;;;;;;7.07;2.20;;;;;;;14.86;72.23;97940.03;5026282;28;20526;-84
2023/07/31 02:43:10;;;;;;;3.23;2.20;;;;;;;14.90;72.14;97933.06;5029183;28;20455;-84
2023/07/31 02:45:36;;;;;;;3.00;2.20;;;;;;;14.99;71.92;97936.25;5028395;28;20545;-84
2023/07/31 02:48:04;;;;;;;3.73;2.50;;;;;;;15.10;71.29;97919.09;5027395;28;20479;-84
2023/07/31 02:50:31;;;;;;;3.63;2.53;;;;;;;15.12;71.29;97922.44;5027079;28;20567;-84
2023/07/31 02:52:59;;;;;;;2.23;2.03;;;;;;;15.02;71.73;97927.59;5029827;28;20968;-84
2023/07/31 02:55:26;;;;;;;4.13;2.43;;;;;;;15.06;71.30;97920.63;5030664;28;20534;-84
2023/07/31 02:57:53;;;;;;;3.37;1.93;;;;;;;15.16;70.98;97923.63;5027212;28;20476;-84
2023/07/31 03:00:20;;;;;;;2.20;2.00;;;;;;;15.09;71.33;97918.28;5025114;28;20602;-84
2023/07/31 03:02:47;;;;;;;2.93;2.07;;;;;;;15.12;70.96;97927.88;5028365;28;20459;-84
2023/07/31 03:05:14;;;;;;;4.63;2.30;;;;;;;15.08;71.37;97921.22;5030701;28;20450;-84
2023/07/31 03:07:40;;;;;;;2.47;1.90;;;;;;;15.05;71.24;97918.97;5029967;28;20894;-84
2023/07/31 03:10:09;;;;;;;2.53;1.80;;;;;;;15.05;71.51;97927.16;5027959;28;20482;-84
2023/07/31 03:12:36;;;;;;;3.87;2.40;;;;;;;15.03;71.66;97929.28;5028045;28;21265;-84
2023/07/31 03:15:03;;;;;;;7.03;2.27;;;;;;;15.04;71.29;97936.38;5024402;28;20538;-83
2023/07/31 03:17:30;;;;;;;5.23;2.43;;;;;;;15.09;71.19;97922.91;5029464;28;20464;-84
2023/07/31 03:19:56;;;;;;;3.00;2.10;;;;;;;15.07;71.01;97923.13;5029489;28;20541;-83
2023/07/31 03:22:23;;;;;;;2.90;2.13;;;;;;;15.18;70.99;97932.41;5028475;28;20483;-84
2023/07/31 03:24:50;;;;;;;2.70;2.10;;;;;;;15.12;71.17;97923.25;5028365;28;21062;-84
2023/07/31 03:27:19;;;;;;;3.80;2.23;;;;;;;15.14;71.00;97920.31;5029437;28;20482;-84
2023/07/31 03:29:46;;;;;;;2.53;2.30;;;;;;;15.32;70.15;97922.91;5028185;28;20462;-84
2023/07/31 03:32:12;;;;;;;2.90;2.30;;;;;;;15.09;70.74;97934.63;5024628;28;20865;-84
2023/07/31 03:34:40;;;;;;;3.90;2.50;;;;;;;15.22;70.49;97928.16;5027637;28;20537;-84
2023/07/31 03:37:06;;;;;;;5.97;2.50;;;;;;;15.22;70.46;97933.59;5029159;28;20479;-84
2023/07/31 03:39:33;;;;;;;3.50;2.47;;;;;;;15.29;70.27;97934.31;5028591;28;20460;-83
2023/07/31 03:42:00;;;;;;;4.43;2.40;;;;;;;15.40;70.11;97922.59;5026853;28;20484;-84
2023/07/31 03:44:28;;;;;;;3.50;2.23;;;;;;;15.15;70.62;97930.16;5022288;28;20509;-84
2023/07/31 03:46:55;;;;;;;2.00;1.87;;;;;;;15.12;71.07;97927.88;5023794;28;20999;-84
2023/07/31 03:49:22;;;;;;;2.43;1.90;;;;;;;15.17;71.05;97929.91;5027137;28;20494;-84
2023/07/31 03:51:48;;;;;;;3.40;2.20;;;;;;;15.26;70.25;97934.78;5028136;28;20584;-84
2023/07/31 03:54:15;;;;;;;4.23;2.13;;;;;;;15.16;70.15;97933.69;5027896;28;20455;-84
2023/07/31 03:56:42;;;;;;;3.10;2.30;;;;;;;15.07;70.66;97938.66;5027750;28;20448;-83
2023/07/31 03:59:09;;;;;;;2.70;1.87;;;;;;;15.02;70.82;97930.34;5020734;28;20544;-83
2023/07/31 04:01:37;;;;;;;2.77;2.20;;;;;;;15.11;70.66;97926.22;5023847;28;20487;-83
2023/07/31 04:04:05;;;;;;;5.90;2.87;;;;;;;15.33;69.53;97927.31;5027307;28;20460;-83
2023/07/31 04:06:31;;;;;;;2.43;2.10;;;;;;;15.04;70.73;97915.41;5023982;28;20464;-83
2023/07/31 04:08:59;;;;;;;7.80;2.97;;;;;;;15.19;70.33;97919.59;5027675;28;20521;-83
2023/07/31 04:11:25;;;;;;;4.20;2.20;;;;;;;15.24;70.30;97911.56;5025385;28;21686;-82
2023/07/31 04:13:52;;;;;;;3.53;2.10;;;;;;;15.23;70.26;97923.53;5028258;28;20964;-83
2023/07/31 04:16:19;;;;;;;2.23;2.03;;;;;;;15.23;69.87;97924.34;5024302;28;21015;-83
2023/07/31 04:18:47;;;;;;;2.40;2.20;;;;;;;15.14;70.53;97923.03;5025374;28;20875;-83
2023/07/31 04:21:14;;;;;;;3.00;2.13;;;;;;;15.18;70.31;97921.50;5024062;28;20460;-83
2023/07/31 04:23:41;;;;;;;2.23;2.00;;;;;;;15.12;71.00;97927.88;5028118;28;20483;-83
2023/07/31 04:26:08;;;;;;;3.13;2.67;;;;;;;15.17;70.63;97921.72;5028905;28;20491;-83
2023/07/31 04:28:34;;;;;;;3.53;2.33;;;;;;;15.16;70.97;97920.91;5028312;28;20555;-83
2023/07/31 04:31:01;;;;;;;5.40;2.30;;;;;;;15.26;70.82;97915.72;5021714;28;20992;-84
2023/07/31 04:33:28;;;;;;;2.47;1.90;;;;;;;15.42;70.19;97915.00;5018996;28;20479;-84
2023/07/31 04:35:56;;;;;;;5.57;2.13;;;;;;;15.61;69.85;97909.44;5022754;28;20449;-83
2023/07/31 04:38:23;;;;;;;3.10;2.40;;;;;;;15.67;68.86;97909.34;5023607;28;20564;-82
2023/07/31 04:40:50;;;;;;;2.90;2.23;;;;;;;15.97;68.38;97911.91;5023022;28;21234;-82
2023/07/31 04:43:17;;;;;;;2.20;2.00;;;;;;;15.95;68.18;97910.50;5027258;28;20463;-83
2023/07/31 04:45:47;;;;;;;6.10;2.87;;;;;;;16.08;67.07;97911.06;5024157;28;20465;-84
2023/07/31 04:48:14;;;;;;;4.13;3.03;;;;;;;16.15;68.14;97910.13;5029732;28;20468;-83
2023/07/31 04:50:40;;;;;;;3.03;2.50;;;;;;;16.08;66.71;97905.59;5020477;28;20491;-82
2023/07/31 04:53:10;;;;;;;2.90;2.20;;;;;;;16.13;67.16;97907.63;5026785;28;20499;-82
2023/07/31 04:55:36;;;;;;;3.30;2.37;;;;;;;16.28;66.58;97909.81;5025970;28;20587;-83
2023/07/31 04:58:03;;;;;;;4.37;2.57;;;;;;;16.35;66.32;97905.88;5043491;28;20468;-83
2023/07/31 05:00:30;;;;;;;2.57;2.20;;;;;;;16.42;66.71;97905.75;5041620;28;20468;-85
2023/07/31 05:02:57;;;;;;;3.80;2.30;;;;;;;16.68;64.68;97909.84;5041010;28;20463;-86
2023/07/31 05:05:29;;;;;;;3.37;2.23;;;;;;;16.77;64.00;97909.22;5026311;28;20460;-81
2023/07/31 05:08:02;;;;;;;2.30;2.00;;;;;;;16.69;64.21;97898.66;5023690;28;20567;-78
2023/07/31 05:10:30;;;;;;;3.20;2.10;;;;;;;16.76;62.96;97902.09;5026814;28;20456;-83
2023/07/31 05:12:57;;;;;;;4.30;2.10;;;;;;;16.84;62.84;97895.41;5024060;28;20838;-80
2023/07/31 05:15:24;;;;;;;2.33;1.70;;;;;;;16.79;62.70;97895.28;5022469;28;20455;-81
2023/07/31 05:17:50;;;;;;;3.20;2.20;;;;;;;16.94;61.96;97903.75;5021967;28;20534;-81
2023/07/31 05:20:17;;;;;;;3.17;1.93;;;;;;;16.90;61.96;97902.59;5023002;28;20475;-82
2023/07/31 05:22:44;;;;;;;2.53;2.10;;;;;;;17.08;61.73;97893.34;5019936;28;20999;-83
2023/07/31 05:25:11;;;;;;;3.33;2.43;;;;;;;17.17;61.43;97891.03;5022535;28;20871;-82
2023/07/31 05:27:39;;;;;;;3.77;2.00;;;;;;;17.10;61.96;97893.94;5024226;28;20475;-82
2023/07/31 05:30:07;;;;;;;3.00;2.23;;;;;;;17.25;60.72;97905.09;5024568;28;20990;-82
2023/07/31 05:32:34;;;;;;;4.57;2.17;;;;;;;17.53;60.45;97893.28;5022454;28;20488;-82
2023/07/31 05:35:01;;;;;;;2.43;1.90;;;;;;;17.57;60.56;97899.88;5019341;28;20461;-81
2023/07/31 05:37:28;;;;;;;4.13;2.70;;;;;;;17.72;60.55;97893.84;5020030;28;20518;-82
2023/07/31 05:39:55;;;;;;;6.10;2.70;;;;;;;17.82;60.33;97899.47;5040170;28;20451;-82
2023/07/31 05:42:22;;;;;;;4.70;2.20;;;;;;;17.91;58.93;97894.38;5043221;28;20473;-82
2023/07/31 05:44:51;;;;;;;2.57;1.90;;;;;;;17.98;58.76;97890.38;5041762;28;20545;-82
2023/07/31 05:47:17;;;;;;;4.43;4.00;;;;;;;18.14;57.97;97888.69;5039356;28;20825;-81
2023/07/31 05:49:45;;;;;;;2.63;1.90;;;;;;;17.89;58.35;97905.56;5041305;28;20567;-79
2023/07/31 05:52:11;;;;;;;3.57;2.20;;;;;;;17.90;59.03;97892.72;5045805;28;20532;-80
2023/07/31 05:54:38;;;;;;;2.27;2.03;;;;;;;17.76;57.96;97892.25;5048092;28;20453;-79
2023/07/31 05:57:07;;;;;;;2.67;2.33;;;;;;;17.78;57.72;97895.59;5045805;28;20479;-77
2023/07/31 05:59:36;;;;;;;4.70;2.30;;;;;;;17.79;58.15;97899.97;5043803;28;20455;-78
2023/07/31 06:02:04;;;;;;;2.40;2.00;;;;;;;17.73;58.22;97899.06;5047812;28;20466;-77
2023/07/31 06:04:31;;;;;;;2.70;2.10;;;;;;;17.73;58.12;97884.56;5048580;28;20461;-78
2023/07/31 06:06:58;;;;;;;3.23;1.93;;;;;;;17.98;57.91;97892.28;5049518;28;20496;-76
2023/07/31 06:09:25;;;;;;;2.63;2.00;;;;;;;17.97;57.67;97896.09;5048114;28;21185;-77
2023/07/31 06:11:51;;;;;;;2.83;2.17;;;;;;;17.89;57.65;97900.09;5037845;28;20495;-82
2023/07/31 06:14:18;;;;;;;2.80;1.90;;;;;;;17.87;57.48;97893.25;5041430;28;20443;-84
2023/07/31 06:16:45;;;;;;;2.33;1.87;;;;;;;17.92;57.82;97890.56;5028595;28;20694;-83
2023/07/31 06:19:13;;;;;;;3.03;2.07;;;;;;;18.03;57.66;97895.94;5047935;28;20475;-83
2023/07/31 06:21:42;;;;;;;3.30;2.33;;;;;;;18.39;56.08;97899.13;5041352;28;20539;-84
2023/07/31 06:24:09;;;;;;;2.37;1.90;;;;;;;18.26;56.64;97894.03;5042468;28;20501;-82
2023/07/31 06:26:36;;;;;;;4.77;2.40;;;;;;;18.52;56.28;97892.44;5039056;28;20684;-84
2023/07/31 06:29:03;;;;;;;2.63;2.30;;;;;;;18.69;56.39;97896.75;5047523;28;20516;-83
2023/07/31 06:31:29;;;;;;;3.33;2.10;;;;;;;18.93;55.21;97890.97;5048694;28;21344;-83
2023/07/31 06:33:56;;;;;;;4.13;1.77;;;;;;;19.03;54.62;97894.63;5045793;28;20474;-84
2023/07/31 06:36:25;;;;;;;3.00;2.10;;;;;;;19.21;54.81;97885.19;5037034;28;20479;-83
2023/07/31 06:38:51;;;;;;;3.70;2.77;;;;;;;19.21;53.37;97896.16;5044281;28;20463;-83
2023/07/31 06:41:18;;;;;;;2.47;2.27;;;;;;;19.11;54.52;97901.56;5046683;28;20550;-84
2023/07/31 06:43:45;;;;;;;2.50;1.90;;;;;;;19.13;54.33;97899.41;5039478;28;20471;-83
2023/07/31 06:46:14;;;;;;;4.73;2.20;;;;;;;19.08;54.01;97904.84;5044085;28;20451;-84
2023/07/31 06:48:43;;;;;;;3.27;2.13;;;;;;;19.02;53.65;97903.13;5043805;28;20548;-83
2023/07/31 06:51:09;;;;;;;2.90;2.33;;;;;;;19.07;54.71;97901.25;5043539;28;20552;-84
2023/07/31 06:53:38;;;;;;;2.63;2.30;;;;;;;19.30;53.31;97900.09;5040634;28;20540;-83
2023/07/31 06:56:05;;;;;;;2.50;2.27;;;;;;;19.63;53.86;97895.44;5050120;28;20601;-84
2023/07/31 06:58:32;;;;;;;3.70;2.23;;;;;;;19.70;52.97;97901.53;5028010;28;20465;-84
2023/07/31 07:00:59;;;;;;;2.80;2.03;;;;;;;19.93;51.68;97903.03;5036345;28;20524;-84
2023/07/31 07:03:26;;;;;;;3.07;2.10;;;;;;;19.72;51.43;97893.84;5038375;28;20462;-83
2023/07/31 07:05:53;;;;;;;2.10;1.80;;;;;;;20.12;51.59;97885.84;5043440;28;20537;-84
2023/07/31 07:08:20;;;;;;;3.50;2.57;;;;;;;19.86;51.98;97897.78;5037698;28;21178;-84
2023/07/31 07:10:48;;;;;;;3.93;2.17;;;;;;;19.78;52.87;97892.78;5029769;28;20470;-84
2023/07/31 07:13:16;;;;;;;3.10;2.00;;;;;;;19.56;52.42;97894.81;5046909;28;20495;-85
2023/07/31 07:15:42;;;;;;;3.10;2.20;;;;;;;19.68;51.97;97889.97;5029037;28;21020;-86
2023/07/31 07:18:10;;;;;;;2.50;1.90;;;;;;;19.80;52.74;97893.38;5029562;28;21254;-84
2023/07/31 07:20:37;;;;;;;3.60;2.07;;;;;;;19.69;52.07;97897.94;5038503;28;20503;-85
2023/07/31 07:23:03;;;;;;;4.13;2.13;;;;;;;20.21;51.29;97888.06;5027912;28;20457;-85
2023/07/31 07:25:30;;;;;;;3.33;2.40;;;;;;;20.31;51.20;97882.63;5030018;28;20806;-82
2023/07/31 07:27:58;;;;;;;2.30;1.83;;;;;;;19.98;51.37;97873.69;5040473;28;20467;-83
2023/07/31 07:30:25;;;;;;;2.87;2.30;;;;;;;20.10;51.76;97873.47;5043652;28;20963;-83
2023/07/31 07:32:52;;;;;;;3.00;2.17;;;;;;;19.91;51.67;97878.56;5046038;28;20495;-83
2023/07/31 07:35:19;;;;;;;6.07;2.43;;;;;;;20.09;51.23;97878.13;5043904;28;20625;-83
2023/07/31 07:37:46;;;;;;;2.57;2.37;;;;;;;20.11;51.83;97878.69;5041181;28;20502;-83
2023/07/31 07:40:13;;;;;;;5.20;2.13;;;;;;;19.94;51.39;97871.72;5039049;28;21203;-83
2023/07/31 07:42:39;;;;;;;3.07;2.27;;;;;;;19.95;51.89;97868.72;5037065;28;20973;-84
2023/07/31 07:45:09;;;;;;;3.50;2.23;;;;;;;20.31;50.59;97877.13;5051227;28;20441;-83
2023/07/31 07:47:36;;;;;;;2.80;2.07;;;;;;;19.97;51.41;97872.03;5059476;28;20459;-82
2023/07/31 07:50:09;;;;;;;3.97;2.00;;;;;;;20.11;50.73;97883.38;5061077;28;20515;-81
2023/07/31 07:52:46;;;;;;;4.63;2.70;;;;;;;20.33;50.50;97870.25;5052291;28;20491;-82
2023/07/31 07:55:15;;;;;;;5.50;2.70;;;;;;;20.64;50.20;97860.22;5046745;28;20461;-81
2023/07/31 07:57:44;;;;;;;2.43;1.93;;;;;;;20.90;49.42;97861.09;5047672;28;20604;-82
2023/07/31 08:00:13;;;;;;;4.30;2.10;;;;;;;20.65;49.59;97861.03;5046590;28;20531;-82
2023/07/31 08:02:39;;;;;;;3.87;2.50;;;;;;;20.54;49.27;97865.69;5035587;28;20450;-82
2023/07/31 08:05:07;;;;;;;3.10;2.30;;;;;;;20.71;49.96;97854.47;5041286;28;20542;-82
2023/07/31 08:07:34;;;;;;;4.53;2.47;;;;;;;20.88;47.89;97860.53;5033265;28;20514;-82
2023/07/31 08:10:01;;;;;;;2.50;2.10;;;;;;;20.31;49.70;97855.13;5029676;28;21211;-82
2023/07/31 08:12:28;;;;;;;3.20;2.17;;;;;;;20.86;50.23;97862.72;5032752;28;20518;-83
2023/07/31 08:14:55;;;;;;;3.27;2.13;;;;;;;20.90;48.61;97868.50;5040411;28;20454;-84
2023/07/31 08:17:23;;;;;;;4.40;2.30;;;;;;;21.13;48.23;97859.72;5037139;28;20590;-82
2023/07/31 08:19:51;;;;;;;3.07;2.17;;;;;;;22.26;46.31;97864.00;5025166;28;20450;-82
2023/07/31 08:22:17;;;;;;;2.63;2.00;;;;;;;22.24;45.22;97852.44;5040252;28;20466;-82
2023/07/31 08:24:44;;;;;;;4.10;2.43;;;;;;;22.85;44.37;97846.63;5040236;28;20542;-82
2023/07/31 08:27:11;;;;;;;3.17;2.30;;;;;;;22.32;45.59;97847.16;5038636;28;20475;-82
2023/07/31 08:29:38;;;;;;;4.63;2.30;;;;;;;23.27;43.26;97838.56;5032882;28;20459;-82
2023/07/31 08:32:05;;;;;;;3.40;2.53;;;;;;;21.94;45.57;97851.41;5024136;28;20484;-82
2023/07/31 08:34:34;;;;;;;3.23;2.20;;;;;;;22.51;44.65;97850.09;5031590;28;20489;-83
2023/07/31 08:37:00;;;;;;;3.87;2.60;;;;;;;23.58;42.67;97835.56;5026559;28;20878;-82
2023/07/31 08:39:27;;;;;;;2.87;2.33;;;;;;;23.44;42.60;97830.69;5041765;28;20489;-83
2023/07/31 08:41:59;;;;;;;2.57;2.30;;;;;;;22.19;45.54;97841.41;5040364;28;20472;-83
2023/07/31 08:44:25;;;;;;;2.83;2.43;;;;;;;21.78;46.65;97841.50;5038148;28;20455;-82
2023/07/31 08:46:52;;;;;;;3.30;2.00;;;;;;;21.98;45.91;97827.69;5034248;28;20517;-82
2023/07/31 08:49:21;;;;;;;2.70;2.00;;;;;;;22.39;45.14;97842.19;5038208;28;20459;-83
2023/07/31 08:51:50;;;;;;;3.00;2.47;;;;;;;22.99;44.20;97834.66;5036013;28;21008;-80
2023/07/31 08:54:17;;;;;;;3.80;2.27;;;;;;;23.75;42.12;97827.63;5039169;28;20573;-81
2023/07/31 08:56:44;;;;;;;4.30;2.40;;;;;;;24.02;41.97;97825.16;5031789;28;20570;-81
2023/07/31 08:59:12;;;;;;;3.97;2.47;;;;;;;23.40;42.70;97837.06;5036277;28;20467;-81
2023/07/31 09:01:44;;;;;;;2.53;2.10;;;;;;;23.13;42.70;97843.91;5033955;28;20448;-81
2023/07/31 09:04:13;;;;;;;2.67;2.10;;;;;;;21.64;45.99;97837.72;5015516;28;20452;-81
2023/07/31 09:06:40;;;;;;;4.37;2.90;;;;;;;22.33;45.30;97825.94;5037473;28;20524;-82
2023/07/31 09:09:08;;;;;;;3.33;2.10;;;;;;;22.03;46.54;97821.38;5037874;28;20488;-81
2023/07/31 09:11:35;;;;;;;4.60;2.50;;;;;;;22.71;44.89;97822.41;5045294;28;20447;-82
2023/07/31 09:14:08;;;;;;;2.73;2.23;;;;;;;22.60;44.79;97831.84;5030491;28;20493;-82
2023/07/31 09:16:35;;;;;;;3.40;2.50;;;;;;;22.06;46.22;97824.41;5019767;28;20482;-82
2023/07/31 09:19:03;;;;;;;4.47;2.30;;;;;;;21.73;47.33;97830.53;5025579;28;21479;-81
2023/07/31 09:21:30;;;;;;;4.23;2.67;;;;;;;22.57;45.09;97820.56;5030737;28;20789;-81
2023/07/31 09:23:57;;;;;;;3.57;2.20;;;;;;;21.77;46.55;97823.34;5025878;28;20459;-82
2023/07/31 09:26:33;;;;;;;2.93;2.50;;;;;;;21.29;48.18;97816.53;5045856;28;20483;-82
2023/07/31 09:29:00;;;;;;;2.73;2.10;;;;;;;21.41;47.31;97826.19;5048385;28;20862;-82
2023/07/31 09:31:34;;;;;;;4.53;2.57;;;;;;;21.31;48.46;97817.94;5034924;28;21760;-81
2023/07/31 09:34:01;;;;;;;3.47;2.70;;;;;;;21.59;47.72;97815.69;5039204;28;20555;-81
2023/07/31 09:36:30;;;;;;;3.17;2.50;;;;;;;21.89;48.08;97814.75;5042325;28;21035;-82
2023/07/31 09:39:03;;;;;;;3.47;2.50;;;;;;;21.24;48.72;97800.84;5030582;28;20451;-81
2023/07/31 09:41:32;;;;;;;2.77;2.50;;;;;;;21.06;48.57;97807.72;5040013;28;21080;-82
2023/07/31 09:43:59;;;;;;;3.00;2.57;;;;;;;21.40;48.53;97808.00;5039289;28;20454;-82
2023/07/31 09:46:28;;;;;;;2.83;2.50;;;;;;;21.63;48.40;97783.72;5035043;28;20899;-82
2023/07/31 09:49:08;;;;;;;5.27;2.70;;;;;;;21.72;48.07;97787.56;5038191;28;20887;-81
2023/07/31 09:51:38;;;;;;;5.17;2.40;;;;;;;22.03;47.25;97777.28;5041997;28;20465;-81
2023/07/31 09:54:11;;;;;;;3.10;2.63;;;;;;;22.85;45.57;97769.34;5042758;28;20491;-82
2023/07/31 09:56:42;;;;;;;3.03;2.73;;;;;;;23.57;42.69;97773.94;5046849;28;22831;-81
2023/07/31 09:59:15;;;;;;;3.17;2.37;;;;;;;23.77;41.90;97767.38;5046671;28;20486;-82
2023/07/31 10:01:42;;;;;;;5.63;2.70;;;;;;;23.70;42.51;97772.44;5038938;28;20898;-82
2023/07/31 10:04:10;;;;;;;2.77;2.13;;;;;;;24.24;41.17;97779.50;5043942;28;20457;-82
2023/07/31 10:06:38;;;;;;;4.33;2.80;;;;;;;23.44;41.63;97769.91;5046237;28;21110;-81
2023/07/31 10:09:06;;;;;;;3.27;2.43;;;;;;;23.87;41.08;97763.66;5044265;28;20456;-82
2023/07/31 10:11:35;;;;;;;3.90;2.73;;;;;;;24.07;40.66;97758.69;5044784;28;20539;-82
2023/07/31 10:14:04;;;;;;;3.77;2.83;;;;;;;24.26;40.84;97753.22;5047668;28;20839;-82
2023/07/31 10:16:31;;;;;;;3.90;2.87;;;;;;;24.86;39.88;97752.59;5041933;28;20462;-82
2023/07/31 10:18:59;;;;;;;4.03;2.50;;;;;;;24.04;41.05;97755.72;5046991;28;20537;-82
2023/07/31 10:21:25;;;;;;;2.90;2.50;;;;;;;24.66;39.79;97757.34;5047396;28;20495;-81
2023/07/31 10:23:52;;;;;;;3.40;2.80;;;;;;;24.87;38.26;97745.94;5043785;28;20459;-81
2023/07/31 10:26:20;;;;;;;3.30;2.57;;;;;;;24.74;39.84;97748.34;5038063;28;20467;-82
2023/07/31 10:28:47;;;;;;;3.57;2.50;;;;;;;24.19;41.12;97746.38;5044454;28;20451;-82
2023/07/31 10:31:16;;;;;;;4.57;2.80;;;;;;;23.70;41.02;97740.09;5039506;28;20577;-82
2023/07/31 10:33:43;;;;;;;3.87;2.60;;;;;;;24.29;41.10;97732.44;5048609;28;20588;-83
2023/07/31 10:36:13;;;;;;;4.30;2.70;;;;;;;24.83;39.33;97731.88;5064700;28;20531;-78
2023/07/31 10:38:40;;;;;;;3.77;2.50;;;;;;;23.76;40.84;97735.31;5053629;28;20475;-75
2023/07/31 10:41:09;;;;;;;3.50;2.67;;;;;;;23.71;42.62;97733.47;5039154;28;20983;-82
2023/07/31 10:43:38;;;;;;;4.93;3.07;;;;;;;23.89;41.75;97731.84;5044197;28;20512;-83
2023/07/31 10:46:08;;;;;;;3.33;2.70;;;;;;;24.76;39.26;97740.56;5049470;28;20471;-83
2023/07/31 10:48:37;;;;;;;2.97;2.67;;;;;;;24.98;39.49;97730.84;5046262;28;20447;-83
2023/07/31 10:51:09;;;;;;;2.93;2.70;;;;;;;23.72;41.97;97740.59;5048400;28;20456;-84
2023/07/31 10:53:39;;;;;;;3.03;2.47;;;;;;;23.98;41.34;97729.25;5044524;28;20483;-84
2023/07/31 10:56:07;;;;;;;3.67;2.70;;;;;;;23.54;42.14;97729.50;5043152;28;20476;-84
2023/07/31 10:58:35;;;;;;;3.20;2.43;;;;;;;23.09;43.07;97743.44;5047446;28;20483;-83
2023/07/31 11:01:04;;;;;;;4.37;2.20;;;;;;;23.28;42.44;97732.50;5045724;28;20491;-83
2023/07/31 11:03:48;;;;;;;3.20;2.90;;;;;;;23.70;41.92;97728.22;5047275;28;21469;-83
2023/07/31 11:06:15;;;;;;;2.90;2.20;;;;;;;24.91;39.34;97713.75;5041097;28;20490;-83
2023/07/31 11:08:44;;;;;;;3.67;2.43;;;;;;;24.86;39.27;97719.38;5047412;28;20451;-83
2023/07/31 11:11:12;;;;;;;3.60;2.63;;;;;;;24.64;38.37;97722.78;5046343;28;20558;-83
2023/07/31 11:13:44;;;;;;;3.97;2.60;;;;;;;24.64;38.66;97720.84;5037786;28;20576;-83
2023/07/31 11:16:12;;;;;;;2.60;2.40;;;;;;;25.18;38.56;97711.09;5038842;28;20507;-83
2023/07/31 11:18:40;;;;;;;6.00;3.00;;;;;;;24.75;39.69;97715.94;5031347;28;20455;-83
2023/07/31 11:21:09;;;;;;;5.77;2.80;;;;;;;24.64;39.69;97708.97;5032990;28;20572;-82
2023/07/31 11:23:38;;;;;;;3.97;2.97;;;;;;;23.67;41.59;97712.22;5035150;28;20454;-83
2023/07/31 11:26:08;;;;;;;3.33;2.60;;;;;;;23.38;41.71;97704.78;5035123;28;20573;-83
2023/07/31 11:28:36;;;;;;;4.50;3.10;;;;;;;23.60;41.76;97711.75;5031356;28;20460;-83
2023/07/31 11:31:24;;;;;;;4.50;2.50;;;;;;;23.63;41.61;97708.41;5365990;23;20908;-82
2023/07/31 11:33:51;;;;;;;5.10;2.80;;;;;;;23.17;42.61;97703.34;5035847;28;20498;-83
2023/07/31 11:36:21;;;;;;;3.70;2.50;;;;;;;23.32;42.51;97702.38;5037923;28;20541;-83